sensor_id;sensor_type;location;lat;lon;timestamp;temperature;humidity
24814;DHT22;12904;50.088;11.414;2023-08-06T00:00:17;14.60;99.90
24814;DHT22;12904;50.088;11.414;2023-08-06T00:02:43;14.50;99.90
24814;DHT22;12904;50.088;11.414;2023-08-06T00:05:08;14.40;99.90
24814;DHT22;12904;50.088;11.414;2023-08-06T00:07:34;14.40;99.90
24814;DHT22;12904;50.088;11.414;2023-08-06T00:09:59;14.40;99.90
24814;DHT22;12904;50.088;11.414;2023-08-06T00:12:25;14.30;99.90
24814;DHT22;12904;50.088;11.414;2023-08-06T00:14:52;14.30;99.90
24814;DHT22;12904;50.088;11.414;2023-08-06T00:17:17;14.20;99.90
24814;DHT22;12904;50.088;11.414;2023-08-06T00:19:43;14.20;99.90
24814;DHT22;12904;50.088;11.414;2023-08-06T00:22:09;14.20;99.90
24814;DHT22;12904;50.088;11.414;2023-08-06T00:24:34;14.20;99.90
24814;DHT22;12904;50.088;11.414;2023-08-06T00:27:00;14.20;99.90
24814;DHT22;12904;50.088;11.414;2023-08-06T00:29:26;14.10;99.90
24814;DHT22;12904;50.088;11.414;2023-08-06T00:31:52;14.10;99.90
24814;DHT22;12904;50.088;11.414;2023-08-06T00:34:17;14.10;99.90
24814;DHT22;12904;50.088;11.414;2023-08-06T00:36:43;14.10;99.90
24814;DHT22;12904;50.088;11.414;2023-08-06T00:39:09;14.10;99.90
24814;DHT22;12904;50.088;11.414;2023-08-06T00:41:34;14.00;99.90
24814;DHT22;12904;50.088;11.414;2023-08-06T00:44:00;14.00;99.90
24814;DHT22;12904;50.088;11.414;2023-08-06T00:46:26;14.00;99.90
24814;DHT22;12904;50.088;11.414;2023-08-06T00:48:52;14.00;99.90
24814;DHT22;12904;50.088;11.414;2023-08-06T00:51:18;13.90;99.90
24814;DHT22;12904;50.088;11.414;2023-08-06T00:53:44;13.90;99.90
24814;DHT22;12904;50.088;11.414;2023-08-06T00:56:11;13.90;99.90
24814;DHT22;12904;50.088;11.414;2023-08-06T00:58:38;13.90;99.90
24814;DHT22;12904;50.088;11.414;2023-08-06T01:01:04;13.90;99.90
24814;DHT22;12904;50.088;11.414;2023-08-06T01:03:30;13.90;99.90
24814;DHT22;12904;50.088;11.414;2023-08-06T01:05:56;13.90;99.90
24814;DHT22;12904;50.088;11.414;2023-08-06T01:13:46;13.80;99.90
24814;DHT22;12904;50.088;11.414;2023-08-06T01:16:15;13.90;99.90
24814;DHT22;12904;50.088;11.414;2023-08-06T01:18:42;13.80;99.90
24814;DHT22;12904;50.088;11.414;2023-08-06T01:21:12;13.90;99.90
24814;DHT22;12904;50.088;11.414;2023-08-06T01:23:38;13.90;99.90
24814;DHT22;12904;50.088;11.414;2023-08-06T01:31:33;13.80;99.90
24814;DHT22;12904;50.088;11.414;2023-08-06T01:34:01;13.80;99.90
24814;DHT22;12904;50.088;11.414;2023-08-06T01:36:28;13.80;99.90
24814;DHT22;12904;50.088;11.414;2023-08-06T01:38:54;13.90;99.90
24814;DHT22;12904;50.088;11.414;2023-08-06T01:41:20;13.90;99.90
24814;DHT22;12904;50.088;11.414;2023-08-06T01:43:45;13.90;99.90
24814;DHT22;12904;50.088;11.414;2023-08-06T01:46:11;14.00;99.90
24814;DHT22;12904;50.088;11.414;2023-08-06T01:48:36;14.00;99.90
24814;DHT22;12904;50.088;11.414;2023-08-06T01:51:05;14.00;99.90
24814;DHT22;12904;50.088;11.414;2023-08-06T01:53:33;14.00;99.90
24814;DHT22;12904;50.088;11.414;2023-08-06T01:55:59;14.00;99.90
24814;DHT22;12904;50.088;11.414;2023-08-06T01:58:24;14.10;99.90
24814;DHT22;12904;50.088;11.414;2023-08-06T02:00:50;14.10;99.90
24814;DHT22;12904;50.088;11.414;2023-08-06T02:03:16;14.20;99.90
24814;DHT22;12904;50.088;11.414;2023-08-06T02:05:41;14.20;99.90
24814;DHT22;12904;50.088;11.414;2023-08-06T02:08:07;14.30;99.90
24814;DHT22;12904;50.088;11.414;2023-08-06T02:10:33;14.30;99.90
24814;DHT22;12904;50.088;11.414;2023-08-06T02:12:58;14.30;99.90
24814;DHT22;12904;50.088;11.414;2023-08-06T02:15:24;14.30;99.90
24814;DHT22;12904;50.088;11.414;2023-08-06T02:17:50;14.30;99.90
24814;DHT22;12904;50.088;11.414;2023-08-06T02:20:15;14.30;99.90
24814;DHT22;12904;50.088;11.414;2023-08-06T02:22:41;14.30;99.90
24814;DHT22;12904;50.088;11.414;2023-08-06T02:25:07;14.30;99.90
24814;DHT22;12904;50.088;11.414;2023-08-06T02:27:32;14.30;99.90
24814;DHT22;12904;50.088;11.414;2023-08-06T02:29:58;14.30;99.90
24814;DHT22;12904;50.088;11.414;2023-08-06T02:32:24;14.30;99.90
24814;DHT22;12904;50.088;11.414;2023-08-06T02:34:49;14.30;99.90
24814;DHT22;12904;50.088;11.414;2023-08-06T02:37:15;14.30;99.90
24814;DHT22;12904;50.088;11.414;2023-08-06T02:39:41;14.30;99.90
24814;DHT22;12904;50.088;11.414;2023-08-06T02:42:07;14.30;99.90
24814;DHT22;12904;50.088;11.414;2023-08-06T02:44:33;14.30;99.90
24814;DHT22;12904;50.088;11.414;2023-08-06T02:46:59;14.20;99.90
24814;DHT22;12904;50.088;11.414;2023-08-06T02:49:25;14.20;99.90
24814;DHT22;12904;50.088;11.414;2023-08-06T02:51:51;14.20;99.90
24814;DHT22;12904;50.088;11.414;2023-08-06T02:54:18;14.20;99.90
24814;DHT22;12904;50.088;11.414;2023-08-06T02:56:45;14.20;99.90
24814;DHT22;12904;50.088;11.414;2023-08-06T02:59:11;14.20;99.90
24814;DHT22;12904;50.088;11.414;2023-08-06T03:01:37;14.20;99.90
24814;DHT22;12904;50.088;11.414;2023-08-06T03:04:04;14.20;99.90
24814;DHT22;12904;50.088;11.414;2023-08-06T03:06:29;14.20;99.90
24814;DHT22;12904;50.088;11.414;2023-08-06T03:08:55;14.20;99.90
24814;DHT22;12904;50.088;11.414;2023-08-06T03:11:21;14.20;99.90
24814;DHT22;12904;50.088;11.414;2023-08-06T03:13:49;14.20;99.90
24814;DHT22;12904;50.088;11.414;2023-08-06T03:16:15;14.20;99.90
24814;DHT22;12904;50.088;11.414;2023-08-06T03:18:40;14.10;99.90
24814;DHT22;12904;50.088;11.414;2023-08-06T03:21:06;14.10;99.90
24814;DHT22;12904;50.088;11.414;2023-08-06T03:23:32;14.10;99.90
24814;DHT22;12904;50.088;11.414;2023-08-06T03:26:03;14.10;99.90
24814;DHT22;12904;50.088;11.414;2023-08-06T03:28:30;14.10;99.90
24814;DHT22;12904;50.088;11.414;2023-08-06T03:31:02;14.20;99.90
24814;DHT22;12904;50.088;11.414;2023-08-06T03:33:28;14.10;99.90
24814;DHT22;12904;50.088;11.414;2023-08-06T03:35:54;14.20;99.90
24814;DHT22;12904;50.088;11.414;2023-08-06T03:38:20;14.20;99.90
24814;DHT22;12904;50.088;11.414;2023-08-06T03:40:49;14.20;99.90
24814;DHT22;12904;50.088;11.414;2023-08-06T03:43:15;14.30;99.90
24814;DHT22;12904;50.088;11.414;2023-08-06T03:45:41;14.30;99.90
24814;DHT22;12904;50.088;11.414;2023-08-06T03:48:07;14.30;99.90
24814;DHT22;12904;50.088;11.414;2023-08-06T03:50:33;14.20;99.90
24814;DHT22;12904;50.088;11.414;2023-08-06T03:52:58;14.20;99.90
24814;DHT22;12904;50.088;11.414;2023-08-06T03:55:24;14.10;99.90
24814;DHT22;12904;50.088;11.414;2023-08-06T03:57:50;14.20;99.90
24814;DHT22;12904;50.088;11.414;2023-08-06T04:00:15;14.20;99.90
24814;DHT22;12904;50.088;11.414;2023-08-06T04:02:41;14.20;99.90
24814;DHT22;12904;50.088;11.414;2023-08-06T04:05:07;14.20;99.90
24814;DHT22;12904;50.088;11.414;2023-08-06T04:07:33;14.10;99.90
24814;DHT22;12904;50.088;11.414;2023-08-06T04:10:00;14.20;99.90
24814;DHT22;12904;50.088;11.414;2023-08-06T04:12:26;14.20;99.90
24814;DHT22;12904;50.088;11.414;2023-08-06T04:14:52;14.20;99.90
24814;DHT22;12904;50.088;11.414;2023-08-06T04:17:19;14.20;99.90
24814;DHT22;12904;50.088;11.414;2023-08-06T04:19:52;14.10;99.90
24814;DHT22;12904;50.088;11.414;2023-08-06T04:22:19;14.10;99.90
24814;DHT22;12904;50.088;11.414;2023-08-06T04:24:45;14.10;99.90
24814;DHT22;12904;50.088;11.414;2023-08-06T04:27:13;14.10;99.90
24814;DHT22;12904;50.088;11.414;2023-08-06T04:29:39;14.10;99.90
24814;DHT22;12904;50.088;11.414;2023-08-06T04:32:08;14.20;99.90
24814;DHT22;12904;50.088;11.414;2023-08-06T04:34:35;14.20;99.90
24814;DHT22;12904;50.088;11.414;2023-08-06T04:37:02;14.20;99.90
24814;DHT22;12904;50.088;11.414;2023-08-06T04:39:28;14.10;99.90
24814;DHT22;12904;50.088;11.414;2023-08-06T04:41:54;14.10;99.90
24814;DHT22;12904;50.088;11.414;2023-08-06T04:44:21;14.10;99.90
24814;DHT22;12904;50.088;11.414;2023-08-06T04:46:46;14.10;99.90
24814;DHT22;12904;50.088;11.414;2023-08-06T04:49:12;14.10;99.90
24814;DHT22;12904;50.088;11.414;2023-08-06T04:51:37;14.10;99.90
24814;DHT22;12904;50.088;11.414;2023-08-06T04:54:04;14.10;99.90
24814;DHT22;12904;50.088;11.414;2023-08-06T04:56:29;14.10;99.90
24814;DHT22;12904;50.088;11.414;2023-08-06T04:58:55;14.20;99.90
24814;DHT22;12904;50.088;11.414;2023-08-06T05:01:20;14.20;99.90
24814;DHT22;12904;50.088;11.414;2023-08-06T05:03:47;14.30;99.90
24814;DHT22;12904;50.088;11.414;2023-08-06T05:06:13;14.30;99.90
24814;DHT22;12904;50.088;11.414;2023-08-06T05:08:38;14.40;99.90
24814;DHT22;12904;50.088;11.414;2023-08-06T05:11:04;14.40;99.90
24814;DHT22;12904;50.088;11.414;2023-08-06T05:13:29;14.40;99.90
24814;DHT22;12904;50.088;11.414;2023-08-06T05:15:55;14.40;99.90
24814;DHT22;12904;50.088;11.414;2023-08-06T05:18:21;14.40;99.90
24814;DHT22;12904;50.088;11.414;2023-08-06T05:20:48;14.40;99.90
24814;DHT22;12904;50.088;11.414;2023-08-06T05:23:13;14.40;99.90
24814;DHT22;12904;50.088;11.414;2023-08-06T05:25:39;14.30;99.90
24814;DHT22;12904;50.088;11.414;2023-08-06T05:28:05;14.30;99.90
24814;DHT22;12904;50.088;11.414;2023-08-06T05:30:30;14.30;99.90
24814;DHT22;12904;50.088;11.414;2023-08-06T05:32:56;14.30;99.90
24814;DHT22;12904;50.088;11.414;2023-08-06T05:35:22;14.30;99.90
24814;DHT22;12904;50.088;11.414;2023-08-06T05:37:49;14.40;99.90
24814;DHT22;12904;50.088;11.414;2023-08-06T05:40:15;14.40;99.90
24814;DHT22;12904;50.088;11.414;2023-08-06T05:42:41;14.40;99.90
24814;DHT22;12904;50.088;11.414;2023-08-06T05:45:07;14.30;99.90
24814;DHT22;12904;50.088;11.414;2023-08-06T05:47:33;14.40;99.90
24814;DHT22;12904;50.088;11.414;2023-08-06T05:49:58;14.40;99.90
24814;DHT22;12904;50.088;11.414;2023-08-06T05:52:24;14.40;99.90
24814;DHT22;12904;50.088;11.414;2023-08-06T05:54:50;14.50;99.90
24814;DHT22;12904;50.088;11.414;2023-08-06T05:57:16;14.50;99.90
24814;DHT22;12904;50.088;11.414;2023-08-06T05:59:42;14.50;99.90
24814;DHT22;12904;50.088;11.414;2023-08-06T06:02:07;14.50;99.90
24814;DHT22;12904;50.088;11.414;2023-08-06T06:04:33;14.50;99.90
24814;DHT22;12904;50.088;11.414;2023-08-06T06:06:59;14.60;99.90
24814;DHT22;12904;50.088;11.414;2023-08-06T06:09:24;14.60;99.90
24814;DHT22;12904;50.088;11.414;2023-08-06T06:11:50;14.60;99.90
24814;DHT22;12904;50.088;11.414;2023-08-06T06:14:17;14.60;99.90
24814;DHT22;12904;50.088;11.414;2023-08-06T06:16:43;14.60;99.90
24814;DHT22;12904;50.088;11.414;2023-08-06T06:19:08;14.60;99.90
24814;DHT22;12904;50.088;11.414;2023-08-06T06:21:34;14.70;99.90
24814;DHT22;12904;50.088;11.414;2023-08-06T06:24:00;14.60;99.90
24814;DHT22;12904;50.088;11.414;2023-08-06T06:26:25;14.70;99.90
24814;DHT22;12904;50.088;11.414;2023-08-06T06:28:51;14.60;99.90
24814;DHT22;12904;50.088;11.414;2023-08-06T06:31:17;14.60;99.90
24814;DHT22;12904;50.088;11.414;2023-08-06T06:33:42;14.60;99.90
24814;DHT22;12904;50.088;11.414;2023-08-06T06:36:08;14.60;99.90
24814;DHT22;12904;50.088;11.414;2023-08-06T06:38:35;14.70;99.90
24814;DHT22;12904;50.088;11.414;2023-08-06T06:41:00;14.70;99.90
24814;DHT22;12904;50.088;11.414;2023-08-06T06:43:28;14.80;99.90
24814;DHT22;12904;50.088;11.414;2023-08-06T06:45:56;14.80;99.90
24814;DHT22;12904;50.088;11.414;2023-08-06T06:48:25;14.80;99.90
24814;DHT22;12904;50.088;11.414;2023-08-06T06:50:51;14.90;99.90
24814;DHT22;12904;50.088;11.414;2023-08-06T06:53:16;15.00;99.90
24814;DHT22;12904;50.088;11.414;2023-08-06T06:55:42;15.10;99.90
24814;DHT22;12904;50.088;11.414;2023-08-06T06:58:08;15.10;99.90
24814;DHT22;12904;50.088;11.414;2023-08-06T07:00:36;15.20;99.90
24814;DHT22;12904;50.088;11.414;2023-08-06T07:03:02;15.20;99.90
24814;DHT22;12904;50.088;11.414;2023-08-06T07:05:28;15.20;99.90
24814;DHT22;12904;50.088;11.414;2023-08-06T07:07:53;15.20;99.90
24814;DHT22;12904;50.088;11.414;2023-08-06T07:10:19;15.30;99.90
24814;DHT22;12904;50.088;11.414;2023-08-06T07:12:44;15.40;99.90
24814;DHT22;12904;50.088;11.414;2023-08-06T07:15:10;15.50;99.90
24814;DHT22;12904;50.088;11.414;2023-08-06T07:17:36;15.70;99.90
24814;DHT22;12904;50.088;11.414;2023-08-06T07:20:02;15.80;99.90
24814;DHT22;12904;50.088;11.414;2023-08-06T07:22:28;16.10;99.90
24814;DHT22;12904;50.088;11.414;2023-08-06T07:24:53;16.30;99.90
24814;DHT22;12904;50.088;11.414;2023-08-06T07:27:19;16.50;99.90
24814;DHT22;12904;50.088;11.414;2023-08-06T07:29:45;16.60;99.90
24814;DHT22;12904;50.088;11.414;2023-08-06T07:32:10;16.50;99.90
24814;DHT22;12904;50.088;11.414;2023-08-06T07:34:36;16.30;99.90
24814;DHT22;12904;50.088;11.414;2023-08-06T07:37:01;16.20;99.90
24814;DHT22;12904;50.088;11.414;2023-08-06T07:39:27;16.10;99.90
24814;DHT22;12904;50.088;11.414;2023-08-06T07:41:54;16.00;99.90
24814;DHT22;12904;50.088;11.414;2023-08-06T07:44:19;15.90;99.90
24814;DHT22;12904;50.088;11.414;2023-08-06T07:46:45;16.00;99.90
24814;DHT22;12904;50.088;11.414;2023-08-06T07:49:10;16.20;99.90
24814;DHT22;12904;50.088;11.414;2023-08-06T07:51:36;16.50;99.90
24814;DHT22;12904;50.088;11.414;2023-08-06T07:54:02;16.50;99.90
24814;DHT22;12904;50.088;11.414;2023-08-06T07:56:28;16.50;99.90
24814;DHT22;12904;50.088;11.414;2023-08-06T07:58:54;16.70;99.90
24814;DHT22;12904;50.088;11.414;2023-08-06T08:01:20;16.60;99.90
24814;DHT22;12904;50.088;11.414;2023-08-06T08:03:45;16.40;99.90
24814;DHT22;12904;50.088;11.414;2023-08-06T08:06:11;16.50;99.90
24814;DHT22;12904;50.088;11.414;2023-08-06T08:08:37;16.40;99.90
24814;DHT22;12904;50.088;11.414;2023-08-06T08:11:04;16.40;99.90
24814;DHT22;12904;50.088;11.414;2023-08-06T08:13:29;16.50;99.90
24814;DHT22;12904;50.088;11.414;2023-08-06T08:15:58;16.50;99.90
24814;DHT22;12904;50.088;11.414;2023-08-06T08:18:24;16.40;99.90
24814;DHT22;12904;50.088;11.414;2023-08-06T08:20:50;16.40;99.90
24814;DHT22;12904;50.088;11.414;2023-08-06T08:23:16;16.50;99.90
24814;DHT22;12904;50.088;11.414;2023-08-06T08:25:42;16.60;99.90
24814;DHT22;12904;50.088;11.414;2023-08-06T08:28:07;16.70;99.90
24814;DHT22;12904;50.088;11.414;2023-08-06T08:30:33;16.60;99.90
24814;DHT22;12904;50.088;11.414;2023-08-06T08:32:59;16.60;99.90
24814;DHT22;12904;50.088;11.414;2023-08-06T08:35:24;16.60;99.90
24814;DHT22;12904;50.088;11.414;2023-08-06T08:37:50;16.60;99.90
24814;DHT22;12904;50.088;11.414;2023-08-06T08:40:17;16.60;99.90
24814;DHT22;12904;50.088;11.414;2023-08-06T08:42:43;16.60;99.90
24814;DHT22;12904;50.088;11.414;2023-08-06T08:45:15;16.50;99.90
24814;DHT22;12904;50.088;11.414;2023-08-06T08:47:42;16.40;99.90
24814;DHT22;12904;50.088;11.414;2023-08-06T08:50:12;16.50;99.90
24814;DHT22;12904;50.088;11.414;2023-08-06T08:52:39;16.60;99.90
24814;DHT22;12904;50.088;11.414;2023-08-06T08:55:07;16.70;99.90
24814;DHT22;12904;50.088;11.414;2023-08-06T08:57:33;16.90;99.90
24814;DHT22;12904;50.088;11.414;2023-08-06T08:59:59;17.00;99.90
24814;DHT22;12904;50.088;11.414;2023-08-06T09:02:28;17.20;99.90
24814;DHT22;12904;50.088;11.414;2023-08-06T09:05:01;17.40;99.90
24814;DHT22;12904;50.088;11.414;2023-08-06T09:07:32;17.60;99.90
24814;DHT22;12904;50.088;11.414;2023-08-06T09:10:00;17.70;99.90
24814;DHT22;12904;50.088;11.414;2023-08-06T09:12:27;17.70;99.90
24814;DHT22;12904;50.088;11.414;2023-08-06T09:14:53;17.60;99.90
24814;DHT22;12904;50.088;11.414;2023-08-06T09:17:19;17.30;99.90
24814;DHT22;12904;50.088;11.414;2023-08-06T09:19:46;17.10;99.90
24814;DHT22;12904;50.088;11.414;2023-08-06T09:22:13;17.00;99.90
24814;DHT22;12904;50.088;11.414;2023-08-06T09:24:43;17.30;99.90
24814;DHT22;12904;50.088;11.414;2023-08-06T09:27:13;17.70;99.90
24814;DHT22;12904;50.088;11.414;2023-08-06T09:29:43;18.00;99.90
24814;DHT22;12904;50.088;11.414;2023-08-06T09:32:10;18.20;99.90
24814;DHT22;12904;50.088;11.414;2023-08-06T09:34:39;18.30;99.90
24814;DHT22;12904;50.088;11.414;2023-08-06T09:37:05;18.40;99.90
24814;DHT22;12904;50.088;11.414;2023-08-06T09:39:31;18.20;99.90
24814;DHT22;12904;50.088;11.414;2023-08-06T09:41:58;17.90;99.90
24814;DHT22;12904;50.088;11.414;2023-08-06T09:44:26;17.50;99.90
24814;DHT22;12904;50.088;11.414;2023-08-06T09:46:57;17.20;99.90
24814;DHT22;12904;50.088;11.414;2023-08-06T09:51:58;16.90;99.90
24814;DHT22;12904;50.088;11.414;2023-08-06T09:54:26;16.80;99.90
24814;DHT22;12904;50.088;11.414;2023-08-06T09:56:53;16.80;99.90
24814;DHT22;12904;50.088;11.414;2023-08-06T09:59:19;16.90;99.90
24814;DHT22;12904;50.088;11.414;2023-08-06T10:01:45;17.10;99.90
24814;DHT22;12904;50.088;11.414;2023-08-06T10:04:13;17.50;99.90
24814;DHT22;12904;50.088;11.414;2023-08-06T10:06:42;17.90;99.90
24814;DHT22;12904;50.088;11.414;2023-08-06T10:09:08;18.30;99.90
24814;DHT22;12904;50.088;11.414;2023-08-06T10:11:37;18.40;99.90
24814;DHT22;12904;50.088;11.414;2023-08-06T10:14:27;18.50;99.90
24814;DHT22;12904;50.088;11.414;2023-08-06T10:16:54;18.70;99.90
24814;DHT22;12904;50.088;11.414;2023-08-06T10:19:22;18.70;99.90
24814;DHT22;12904;50.088;11.414;2023-08-06T10:22:08;18.70;99.90
24814;DHT22;12904;50.088;11.414;2023-08-06T10:24:55;18.70;99.90
24814;DHT22;12904;50.088;11.414;2023-08-06T10:27:22;18.70;99.90
24814;DHT22;12904;50.088;11.414;2023-08-06T10:29:48;18.70;99.90
24814;DHT22;12904;50.088;11.414;2023-08-06T10:32:15;18.60;99.90
24814;DHT22;12904;50.088;11.414;2023-08-06T10:35:07;18.60;99.90
24814;DHT22;12904;50.088;11.414;2023-08-06T10:37:36;18.60;99.90
24814;DHT22;12904;50.088;11.414;2023-08-06T10:40:02;18.80;99.90
24814;DHT22;12904;50.088;11.414;2023-08-06T10:42:29;18.90;99.90
24814;DHT22;12904;50.088;11.414;2023-08-06T10:45:14;18.90;99.90
24814;DHT22;12904;50.088;11.414;2023-08-06T10:47:41;19.00;99.90
24814;DHT22;12904;50.088;11.414;2023-08-06T10:50:10;19.20;99.90
24814;DHT22;12904;50.088;11.414;2023-08-06T10:52:35;19.40;99.90
24814;DHT22;12904;50.088;11.414;2023-08-06T10:55:01;19.60;99.90
24814;DHT22;12904;50.088;11.414;2023-08-06T10:57:27;19.80;99.90
24814;DHT22;12904;50.088;11.414;2023-08-06T10:59:52;19.80;99.90
24814;DHT22;12904;50.088;11.414;2023-08-06T11:02:18;19.50;99.90
24814;DHT22;12904;50.088;11.414;2023-08-06T11:04:44;19.10;99.90
24814;DHT22;12904;50.088;11.414;2023-08-06T11:07:10;18.70;99.90
24814;DHT22;12904;50.088;11.414;2023-08-06T11:09:36;18.10;99.90
24814;DHT22;12904;50.088;11.414;2023-08-06T11:12:02;17.90;99.90
24814;DHT22;12904;50.088;11.414;2023-08-06T11:14:30;17.80;99.90
24814;DHT22;12904;50.088;11.414;2023-08-06T11:16:56;18.00;99.90
24814;DHT22;12904;50.088;11.414;2023-08-06T11:19:22;18.10;99.90
24814;DHT22;12904;50.088;11.414;2023-08-06T11:21:50;18.30;99.90
24814;DHT22;12904;50.088;11.414;2023-08-06T11:24:16;18.60;99.90
24814;DHT22;12904;50.088;11.414;2023-08-06T11:26:42;18.90;99.90
24814;DHT22;12904;50.088;11.414;2023-08-06T11:29:10;19.20;99.90
24814;DHT22;12904;50.088;11.414;2023-08-06T11:31:36;19.50;99.90
24814;DHT22;12904;50.088;11.414;2023-08-06T11:34:02;19.70;99.90
24814;DHT22;12904;50.088;11.414;2023-08-06T11:36:32;19.90;99.90
24814;DHT22;12904;50.088;11.414;2023-08-06T11:39:02;20.00;99.90
24814;DHT22;12904;50.088;11.414;2023-08-06T11:41:32;19.90;99.90
24814;DHT22;12904;50.088;11.414;2023-08-06T11:44:00;19.80;99.90
24814;DHT22;12904;50.088;11.414;2023-08-06T11:46:26;19.90;99.90
24814;DHT22;12904;50.088;11.414;2023-08-06T11:48:56;20.00;99.90
24814;DHT22;12904;50.088;11.414;2023-08-06T11:51:23;20.10;99.90
24814;DHT22;12904;50.088;11.414;2023-08-06T11:53:49;20.30;99.90
24814;DHT22;12904;50.088;11.414;2023-08-06T11:56:16;20.60;99.90
24814;DHT22;12904;50.088;11.414;2023-08-06T11:58:42;20.90;99.90
24814;DHT22;12904;50.088;11.414;2023-08-06T12:01:08;21.10;99.90
24814;DHT22;12904;50.088;11.414;2023-08-06T12:03:39;21.00;99.90
24814;DHT22;12904;50.088;11.414;2023-08-06T12:06:05;20.90;99.90
24814;DHT22;12904;50.088;11.414;2023-08-06T12:08:30;20.60;99.90
24814;DHT22;12904;50.088;11.414;2023-08-06T12:10:56;20.50;99.90
24814;DHT22;12904;50.088;11.414;2023-08-06T12:13:22;20.60;99.90
24814;DHT22;12904;50.088;11.414;2023-08-06T12:15:47;20.60;99.90
24814;DHT22;12904;50.088;11.414;2023-08-06T12:18:13;20.60;99.90
24814;DHT22;12904;50.088;11.414;2023-08-06T12:20:38;20.30;99.90
24814;DHT22;12904;50.088;11.414;2023-08-06T12:23:04;20.30;99.90
24814;DHT22;12904;50.088;11.414;2023-08-06T12:25:30;20.40;99.90
24814;DHT22;12904;50.088;11.414;2023-08-06T12:27:55;20.30;99.90
24814;DHT22;12904;50.088;11.414;2023-08-06T12:30:21;20.30;99.90
24814;DHT22;12904;50.088;11.414;2023-08-06T12:32:47;20.30;99.90
24814;DHT22;12904;50.088;11.414;2023-08-06T12:35:12;20.10;99.90
24814;DHT22;12904;50.088;11.414;2023-08-06T12:37:39;20.10;99.90
24814;DHT22;12904;50.088;11.414;2023-08-06T12:40:05;20.40;99.90
24814;DHT22;12904;50.088;11.414;2023-08-06T12:42:31;20.50;99.90
24814;DHT22;12904;50.088;11.414;2023-08-06T12:44:57;20.50;99.90
24814;DHT22;12904;50.088;11.414;2023-08-06T12:47:23;20.60;99.90
24814;DHT22;12904;50.088;11.414;2023-08-06T12:49:49;20.40;99.90
24814;DHT22;12904;50.088;11.414;2023-08-06T12:52:15;20.20;99.90
24814;DHT22;12904;50.088;11.414;2023-08-06T12:54:41;19.90;99.90
24814;DHT22;12904;50.088;11.414;2023-08-06T12:57:07;19.60;99.90
24814;DHT22;12904;50.088;11.414;2023-08-06T12:59:33;19.50;99.90
24814;DHT22;12904;50.088;11.414;2023-08-06T13:01:59;19.50;99.90
24814;DHT22;12904;50.088;11.414;2023-08-06T13:04:25;19.50;99.90
24814;DHT22;12904;50.088;11.414;2023-08-06T13:06:51;19.40;99.90
24814;DHT22;12904;50.088;11.414;2023-08-06T13:09:16;19.10;99.90
24814;DHT22;12904;50.088;11.414;2023-08-06T13:11:42;18.70;99.90
24814;DHT22;12904;50.088;11.414;2023-08-06T13:14:11;18.00;99.90
24814;DHT22;12904;50.088;11.414;2023-08-06T13:16:40;17.30;99.90
24814;DHT22;12904;50.088;11.414;2023-08-06T13:19:07;16.70;99.90
24814;DHT22;12904;50.088;11.414;2023-08-06T13:21:34;16.40;99.90
24814;DHT22;12904;50.088;11.414;2023-08-06T13:24:01;16.20;99.90
24814;DHT22;12904;50.088;11.414;2023-08-06T13:26:31;16.10;99.90
24814;DHT22;12904;50.088;11.414;2023-08-06T13:28:57;16.10;99.90
24814;DHT22;12904;50.088;11.414;2023-08-06T13:31:23;16.20;99.90
24814;DHT22;12904;50.088;11.414;2023-08-06T13:33:49;16.30;99.90
24814;DHT22;12904;50.088;11.414;2023-08-06T13:36:16;16.60;99.90
24814;DHT22;12904;50.088;11.414;2023-08-06T13:38:42;16.90;99.90
24814;DHT22;12904;50.088;11.414;2023-08-06T13:41:07;17.20;99.90
24814;DHT22;12904;50.088;11.414;2023-08-06T13:43:33;17.60;99.90
24814;DHT22;12904;50.088;11.414;2023-08-06T13:45:59;17.80;99.90
24814;DHT22;12904;50.088;11.414;2023-08-06T13:48:24;17.90;99.90
24814;DHT22;12904;50.088;11.414;2023-08-06T13:50:50;17.90;99.90
24814;DHT22;12904;50.088;11.414;2023-08-06T13:53:16;17.90;99.90
24814;DHT22;12904;50.088;11.414;2023-08-06T13:55:41;17.90;99.90
24814;DHT22;12904;50.088;11.414;2023-08-06T13:58:07;17.90;99.90
24814;DHT22;12904;50.088;11.414;2023-08-06T14:00:35;17.90;99.90
24814;DHT22;12904;50.088;11.414;2023-08-06T14:03:01;18.00;99.90
24814;DHT22;12904;50.088;11.414;2023-08-06T14:05:26;17.90;99.90
24814;DHT22;12904;50.088;11.414;2023-08-06T14:07:52;18.00;99.90
24814;DHT22;12904;50.088;11.414;2023-08-06T14:10:18;17.90;99.90
24814;DHT22;12904;50.088;11.414;2023-08-06T14:12:43;17.90;99.90
24814;DHT22;12904;50.088;11.414;2023-08-06T14:15:10;17.80;99.90
24814;DHT22;12904;50.088;11.414;2023-08-06T14:17:36;17.70;99.90
24814;DHT22;12904;50.088;11.414;2023-08-06T14:20:02;17.80;99.90
24814;DHT22;12904;50.088;11.414;2023-08-06T14:22:30;17.80;99.90
24814;DHT22;12904;50.088;11.414;2023-08-06T14:24:57;17.70;99.90
24814;DHT22;12904;50.088;11.414;2023-08-06T14:27:23;17.70;99.90
24814;DHT22;12904;50.088;11.414;2023-08-06T14:29:48;17.50;99.90
24814;DHT22;12904;50.088;11.414;2023-08-06T14:32:14;17.30;99.90
24814;DHT22;12904;50.088;11.414;2023-08-06T14:34:43;17.20;99.90
24814;DHT22;12904;50.088;11.414;2023-08-06T14:37:09;16.90;99.90
24814;DHT22;12904;50.088;11.414;2023-08-06T14:39:35;16.70;99.90
24814;DHT22;12904;50.088;11.414;2023-08-06T14:42:01;16.50;99.90
24814;DHT22;12904;50.088;11.414;2023-08-06T14:44:27;16.40;99.90
24814;DHT22;12904;50.088;11.414;2023-08-06T14:46:53;16.40;99.90
24814;DHT22;12904;50.088;11.414;2023-08-06T14:49:18;16.40;99.90
24814;DHT22;12904;50.088;11.414;2023-08-06T14:51:44;16.50;99.90
24814;DHT22;12904;50.088;11.414;2023-08-06T14:54:09;16.50;99.90
24814;DHT22;12904;50.088;11.414;2023-08-06T14:56:35;16.50;99.90
24814;DHT22;12904;50.088;11.414;2023-08-06T14:59:01;16.50;99.90
24814;DHT22;12904;50.088;11.414;2023-08-06T15:01:26;16.50;99.90
24814;DHT22;12904;50.088;11.414;2023-08-06T15:03:52;16.50;99.90
24814;DHT22;12904;50.088;11.414;2023-08-06T15:06:18;16.50;99.90
24814;DHT22;12904;50.088;11.414;2023-08-06T15:08:43;16.50;99.90
24814;DHT22;12904;50.088;11.414;2023-08-06T15:11:13;16.50;99.90
24814;DHT22;12904;50.088;11.414;2023-08-06T15:13:39;16.60;99.90
24814;DHT22;12904;50.088;11.414;2023-08-06T15:16:05;16.60;99.90
24814;DHT22;12904;50.088;11.414;2023-08-06T15:18:30;16.70;99.90
24814;DHT22;12904;50.088;11.414;2023-08-06T15:20:56;16.70;99.90
24814;DHT22;12904;50.088;11.414;2023-08-06T15:23:23;16.80;99.90